Airfield :
LOGIN :

Register | Disclaimer

   EN    FR    IT 

 










Legend :    VFR   Marginal VFR   IFR   Intensive IFR   Very Intensive IFR
Visi :
Ceiling :
>= 8 km
>= 3000ft
5 to 8 km
1000 to 3000 ft
1500m to 5 km
500 to 1000 ft
800 to 1500m
200 to 500 ft
< 800m
< 200 ft
Symbols :   Thunderstorms  Fog  Heavy snow  Heavy precipitations  Wind > 20 kt
SIGMETs :     Misc.  Thunderstorms  Icing  Turbulence  Mountain Waves  Volcanic Ashes







- Airport Elevation : 2096 ft
- IATA code : AUR
- Download approach charts


LFLW - Aurillac

CURRENT METAR :
  • 171930Z AUTO 13002KT CAVOK 04/01 Q1022

EXPIRED METARs :
  • 171900Z AUTO VRB01KT CAVOK 06/01 Q1022
  • 171830Z AUTO 12003KT CAVOK 06/02 Q1021
  • 171800Z AUTO VRB03KT CAVOK 07/02 Q1021
  • 171730Z AUTO 17004KT CAVOK 07/02 Q1021 TEMPO 4000 BR
  • 171700Z AUTO 13004KT 090V160 CAVOK 09/02 Q1021 TEMPO 4000 BR

TAF TAF LFLW
Valid from the 17 at 15:00 until the 18 at 00:00 UTC


171400Z 1715/1724 VRB03KT CAVOK
PROB40
TEMPO 1718/1724 4000 BR NSC
No reported NOTAMs for that airfield.



MET'MAP, your aeronautical weather chart ! - Copyright ORBIFLY December 2007 - Disclaimer

ORBIFLY MET'MAP TEAM :

Programming & Development : Alexandra Zaïnal
Concept & Development : Baudouin d'Aumeries
Co-Development & Prog : Marc-Olivier Méhu
Technical & hardware support : Manuel Goepfert

Contact : metmap@orbifly.com




SOURCES & CREDITS :

   NOAA